createdAt,value
2023-03-19T00:01:16.799Z,12.764708319321016
2023-03-19T00:04:17.792Z,12.771773560918882
2023-03-19T00:07:17.558Z,12.749935543212633
2023-03-19T00:11:17.080Z,12.77755421354459
2023-03-19T00:14:16.931Z,12.740301125307543
2023-03-19T00:17:17.024Z,12.739658830816916
2023-03-19T00:21:16.681Z,12.736447358431997
2023-03-19T00:24:18.232Z,12.767277498020212
2023-03-19T00:27:16.881Z,12.783977161338498
2023-03-19T00:31:16.914Z,12.711397877731361
2023-03-19T00:34:19.413Z,12.737731947372321
2023-03-19T00:37:17.916Z,12.737089652899886
2023-03-19T00:41:17.842Z,12.74800865954976
2023-03-19T00:44:17.337Z,12.726170647564231
2023-03-19T00:47:17.142Z,12.714609349229523
2023-03-19T00:51:17.084Z,12.771773560918882
2023-03-19T00:54:17.456Z,12.75250472149346
2023-03-19T00:57:17.523Z,12.737089652899886
2023-03-19T01:01:17.925Z,12.713967054920795
2023-03-19T01:04:17.321Z,12.6574451735607
2023-03-19T01:07:17.100Z,12.694055933605796
2023-03-19T01:11:17.850Z,12.701121169701219
2023-03-19T01:14:17.838Z,12.644599296344676
2023-03-19T01:17:17.337Z,12.639460945967585
2023-03-19T01:21:16.388Z,12.65166452858839
2023-03-19T01:24:17.319Z,12.612484611262698
2023-03-19T01:27:16.732Z,12.558531965918155
2023-03-19T01:31:17.705Z,12.572662417549873
2023-03-19T01:34:17.408Z,12.530271069257651
2023-03-19T01:37:17.488Z,12.51678291713697
2023-03-19T01:41:16.993Z,12.48209910660671
2023-03-19T01:44:27.114Z,12.455765111171422
2023-03-19T01:47:25.061Z,12.414016109683962
2023-03-19T01:51:20.846Z,12.331160455942154
2023-03-19T01:54:22.027Z,12.292622968358046
2023-03-19T01:57:18.111Z,12.261792990077812
2023-03-19T02:01:17.736Z,12.268215901355507
2023-03-19T02:04:18.206Z,12.203986809042181
2023-03-19T02:07:17.702Z,12.191140996036484
2023-03-19T02:11:17.392Z,12.151961277603641
2023-03-19T02:14:16.979Z,12.141042342694709
2023-03-19T02:17:17.321Z,12.041487408554621
2023-03-19T02:21:19.649Z,12.069748152947522
2023-03-19T02:24:24.795Z,11.995242573083761
2023-03-19T02:27:17.538Z,11.974047031371446
2023-03-19T02:31:17.427Z,11.97533160951607
2023-03-19T02:34:35.757Z,11.876419145603723
2023-03-19T02:37:20.657Z,11.897614664505909
2023-03-19T02:41:16.832Z,11.850727614179778
2023-03-19T02:44:20.557Z,11.771083913004258
2023-03-19T02:47:17.337Z,11.789067968448217
2023-03-19T02:51:16.278Z,11.777506789539256
2023-03-19T02:54:16.829Z,11.729977513948688
2023-03-19T02:57:16.896Z,11.722912353486844
2023-03-19T03:01:17.072Z,11.705570598322447
2023-03-19T03:04:17.569Z,11.67281395872351
2023-03-19T03:07:17.715Z,11.644553337985508
2023-03-19T03:11:16.052Z,11.643911051252871
2023-03-19T03:14:16.562Z,11.615008152990868
2023-03-19T03:17:16.891Z,11.624642451388354
2023-03-19T03:21:20.606Z,11.6413419043678
2023-03-19T03:24:16.637Z,11.615650439518868
2023-03-19T03:27:16.836Z,11.650976205561983
2023-03-19T03:31:16.178Z,11.647122484961528
2023-03-19T03:34:16.880Z,11.64262647780124
2023-03-19T03:37:16.524Z,11.659968220933024
2023-03-19T03:41:17.047Z,11.643268764524782
2023-03-19T03:44:17.970Z,11.612439006924342
2023-03-19T03:47:18.248Z,11.545641234733285
2023-03-19T03:51:16.708Z,11.643268764524782
2023-03-19T03:54:17.088Z,11.613723579948509
2023-03-19T03:57:17.283Z,11.546283520770157
2023-03-19T04:01:18.572Z,11.562982959325018
2023-03-19T04:04:16.837Z,11.563625245484673
2023-03-19T04:07:16.814Z,11.566194390168766
2023-03-19T04:11:16.715Z,11.593812700117997
2023-03-19T04:14:17.079Z,11.58803212292123
2023-03-19T04:17:17.442Z,11.57325953842519
2023-03-19T04:21:16.997Z,11.610512147422195
2023-03-19T04:24:17.246Z,11.611154433918363
2023-03-19T04:27:17.089Z,11.610512147422195
2023-03-19T04:31:16.934Z,11.517380653612872
2023-03-19T04:34:18.089Z,11.527014941642118
2023-03-19T04:37:18.067Z,11.481412654010729
2023-03-19T04:41:16.661Z,11.473062941856915
2023-03-19T04:44:17.516Z,11.487835510036621
2023-03-19T04:47:16.759Z,11.40626527229324
2023-03-19T04:51:17.267Z,11.413330408094135
2023-03-19T04:54:16.590Z,11.453794378281236
2023-03-19T04:57:17.076Z,11.394061857205907
2023-03-19T05:01:17.576Z,11.442233242100338
2023-03-19T05:04:18.146Z,11.413330408094135
2023-03-19T05:07:17.348Z,11.431956677843118
2023-03-19T05:11:17.009Z,11.417826403890285
2023-03-19T05:14:16.998Z,11.413330408094135
2023-03-19T05:17:16.878Z,11.417184118762908
2023-03-19T05:21:17.059Z,11.40112699205638
2023-03-19T05:24:17.305Z,11.416541833640077
2023-03-19T05:27:17.626Z,11.33754079821092
2023-03-19T05:31:17.412Z,11.385069868192023
2023-03-19T05:34:17.478Z,11.35552476770763
2023-03-19T05:37:17.819Z,11.347175067140778
2023-03-19T05:41:16.779Z,11.323410538964618
2023-03-19T05:44:17.225Z,11.298361448437209
2023-03-19T05:47:17.288Z,11.27202779662266
2023-03-19T05:51:16.497Z,11.254686127651075
2023-03-19T05:54:17.250Z,11.238629029707317
2023-03-19T05:57:16.730Z,11.268174092120262
2023-03-19T06:01:16.740Z,11.342679074846183
2023-03-19T06:04:17.012Z,11.262393535673619
2023-03-19T06:07:16.659Z,11.309922566282694
2023-03-19T06:11:16.380Z,11.31313398816792
2023-03-19T06:14:16.483Z,11.304142007175779
2023-03-19T06:17:16.623Z,11.334971660002429
2023-03-19T06:21:16.975Z,11.313776272558608
2023-03-19T06:24:16.882Z,11.245694152452415
2023-03-19T06:27:16.638Z,11.304142007175779
2023-03-19T06:31:17.405Z,11.343963644050472
2023-03-19T06:34:16.997Z,11.31313398816792
2023-03-19T06:37:17.531Z,11.342679074846183
2023-03-19T06:41:16.908Z,11.459574946924203
2023-03-19T06:44:17.080Z,11.464070945012281
2023-03-19T06:47:16.880Z,11.51031550970838
2023-03-19T06:51:17.310Z,11.61886187222708
2023-03-19T06:54:17.443Z,11.650976205561983
2023-03-19T06:57:17.288Z,11.668317950289929
2023-03-19T07:01:16.979Z,11.816686346250298
2023-03-19T07:04:17.613Z,11.872565415426289
2023-03-19T07:07:16.874Z,11.902752972864345
2023-03-19T07:11:17.028Z,12.03634909233815
2023-03-19T07:14:17.361Z,12.111496996001005
2023-03-19T07:17:17.189Z,12.176368313328657
2023-03-19T07:21:16.364Z,12.250874041949373
2023-03-19T07:24:16.783Z,12.315745458944003
2023-03-19T07:27:16.902Z,12.40630860381798
2023-03-19T07:31:17.411Z,12.455122818695326
2023-03-19T07:34:16.728Z,12.485310569987632
2023-03-19T07:37:16.750Z,12.546970688947477
2023-03-19T07:41:16.252Z,12.631753420947643
2023-03-19T07:44:17.130Z,12.688275286300632
2023-03-19T07:47:28.483Z,12.764708319321016
2023-03-19T07:51:16.799Z,12.853345026489205
2023-03-19T07:54:17.163Z,12.907940142843653
2023-03-19T07:57:17.172Z,12.968315956834704
2023-03-19T08:01:16.994Z,13.041537742611036
2023-03-19T08:04:18.093Z,13.126963234044615
2023-03-19T08:07:17.411Z,13.20275433890065
2023-03-19T08:11:16.601Z,13.317725712060929
2023-03-19T08:14:20.011Z,13.414070550381803
2023-03-19T08:17:17.538Z,13.489861895098874
2023-03-19T08:21:16.772Z,13.60804513524199
2023-03-19T08:24:18.062Z,13.656859996751882
2023-03-19T08:27:17.284Z,13.729440036767574
2023-03-19T08:31:16.489Z,13.800735530839301
2023-03-19T08:34:17.570Z,13.903503909171558
2023-03-19T08:37:16.947Z,14.006914707377382
2023-03-19T08:41:16.643Z,14.03324915308076
2023-03-19T08:44:17.066Z,14.101333365206665
2023-03-19T08:47:17.432Z,14.144367752056223
2023-03-19T08:51:17.100Z,14.283747921232134
2023-03-19T08:54:18.044Z,14.385232234429349
2023-03-19T08:57:17.287Z,14.450747484261228
2023-03-19T09:01:16.241Z,14.552231984268655
2023-03-19T09:04:17.269Z,14.683262772442323
2023-03-19T09:07:16.864Z,14.724370509692017
2023-03-19T09:11:18.662Z,14.851547689760627
2023-03-19T09:14:17.301Z,14.913209416998143
2023-03-19T09:17:18.723Z,14.963309601237778
2023-03-19T09:21:16.197Z,15.031394511346297
2023-03-19T09:24:16.531Z,15.091129427389479
2023-03-19T09:27:16.529Z,15.157929810194128
2023-03-19T09:31:16.679Z,15.297311536543202
2023-03-19T09:34:16.979Z,15.400081610173583
2023-03-19T09:37:17.891Z,15.523405852198266
2023-03-19T09:41:26.191Z,15.561302397742201
2023-03-19T09:44:26.131Z,15.651868782568272
2023-03-19T09:47:26.293Z,15.718027262669874
2023-03-19T09:51:20.915Z,15.886956416163594
2023-03-19T09:54:28.984Z,16.022485356067865
2023-03-19T09:57:18.449Z,16.085432515492812
2023-03-19T10:01:25.438Z,16.237662050951986
2023-03-19T10:04:35.414Z,16.377687756357773
2023-03-19T10:07:30.129Z,16.452839256176322
2023-03-19T10:11:34.059Z,16.57488028594462
2023-03-19T10:14:42.531Z,16.705913995397076
2023-03-19T10:17:20.126Z,16.768219305983802
2023-03-19T10:21:22.567Z,16.86456780865883
2023-03-19T10:24:24.352Z,16.938435063335145
2023-03-19T10:27:20.705Z,16.980828471441875
2023-03-19T10:31:26.675Z,17.06240372156062
2023-03-19T10:34:27.698Z,17.108008814614823
2023-03-19T10:37:19.486Z,17.107366489201375
2023-03-19T10:41:29.481Z,17.124066951428905
2023-03-19T10:44:27.547Z,17.170956727192333
2023-03-19T10:47:17.991Z,17.18829952710694
2023-03-19T10:51:24.107Z,17.19793441738084
2023-03-19T10:54:22.890Z,17.157467885106236
2023-03-19T10:57:24.581Z,17.15618323358358
2023-03-19T11:01:17.157Z,17.162606491378757
2023-03-19T11:04:18.917Z,17.175453008333353
2023-03-19T11:07:20.153Z,17.160037188206115
2023-03-19T11:11:24.201Z,17.1966497652852
2023-03-19T11:14:24.566Z,17.24867818970815
2023-03-19T11:17:22.185Z,17.1998613955584
2023-03-19T11:21:28.080Z,17.258955412876094
2023-03-19T11:24:17.782Z,17.275013576406582
2023-03-19T11:27:18.907Z,17.306487585170906
2023-03-19T11:31:27.807Z,17.31869179558862
2023-03-19T11:34:32.286Z,17.33410764267328
2023-03-19T11:37:30.717Z,17.29813733688361
2023-03-19T11:41:27.488Z,17.319976449412298
2023-03-19T11:44:22.636Z,17.35016581950513
2023-03-19T11:47:27.697Z,17.35723141821154
2023-03-19T11:51:22.519Z,17.394486402308484
2023-03-19T11:54:23.406Z,17.35466210952736
2023-03-19T11:57:26.075Z,17.40219433196262
2023-03-19T12:01:30.732Z,17.448441923638985
2023-03-19T12:04:35.865Z,17.30070664396708
2023-03-19T12:07:24.827Z,17.298779663647657
2023-03-19T12:11:23.149Z,17.41182924495115
2023-03-19T12:14:25.685Z,17.419537176078666
2023-03-19T12:17:34.131Z,17.208853960928174
2023-03-19T12:21:26.872Z,17.302633624327427
2023-03-19T12:24:26.965Z,17.417610193235397
2023-03-19T12:27:27.297Z,17.394486402308484
2023-03-19T12:32:03.816Z,17.391274765145862
2023-03-19T12:34:28.137Z,17.358516072580915
2023-03-19T12:37:25.618Z,17.38870545549762
2023-03-19T12:41:22.126Z,17.39255941999727
2023-03-19T12:44:21.756Z,17.395128729754653
2023-03-19T12:47:23.992Z,17.40861760717462
2023-03-19T12:51:21.256Z,17.349523492377283
2023-03-19T12:54:22.662Z,17.306487585170906
2023-03-19T12:57:26.342Z,17.36750865367585
2023-03-19T13:01:23.237Z,17.43174140170313
2023-03-19T13:04:24.765Z,17.431099073997757
2023-03-19T13:07:23.237Z,17.379070544964726
2023-03-19T13:11:25.552Z,17.47092340033014
2023-03-19T13:14:24.852Z,17.48184297673297
2023-03-19T13:17:25.532Z,17.54479114868018
2023-03-19T13:21:23.669Z,17.6584833658304
2023-03-19T13:24:24.102Z,17.69509614405333
2023-03-19T13:27:21.850Z,17.748409514202287
2023-03-19T13:31:20.155Z,17.85889033279127
2023-03-19T13:34:23.875Z,17.91284613029893
2023-03-19T13:37:20.071Z,17.973867606621297
2023-03-19T13:42:05.698Z,18.07214438634146
2023-03-19T13:44:34.080Z,18.093341352786318
2023-03-19T13:47:51.830Z,18.155647616159694
2023-03-19T13:51:25.527Z,18.172990604298775
2023-03-19T13:54:20.274Z,18.23593925576797
2023-03-19T13:57:31.924Z,18.20767659052226
2023-03-19T14:01:49.440Z,18.201895591897483
2023-03-19T14:04:23.713Z,18.20767659052226
2023-03-19T14:07:20.731Z,18.22245025534794
2023-03-19T14:11:24.241Z,18.191618261918485
2023-03-19T14:14:20.516Z,18.232085255443327
2023-03-19T14:17:23.326Z,18.116465321828674
2023-03-19T14:21:36.232Z,18.181340933103638
2023-03-19T14:24:55.928Z,18.119034652086064
2023-03-19T14:27:26.336Z,18.15500528332932
2023-03-19T14:31:22.627Z,18.135092967843228
2023-03-19T14:34:24.576Z,18.121603982416218
2023-03-19T14:37:22.840Z,18.07985237356661
2023-03-19T14:41:20.332Z,18.07985237356661
2023-03-19T14:45:40.454Z,18.03553145596461
2023-03-19T14:47:36.698Z,18.02653880865846
2023-03-19T14:51:30.930Z,18.024611812923105
2023-03-19T14:54:29.669Z,18.02075782157517
2023-03-19T14:57:19.697Z,17.99634921350662
2023-03-19T15:01:17.736Z,17.95652465654457
2023-03-19T15:04:24.282Z,17.953955330889222
2023-03-19T15:07:20.995Z,17.940466372392347
2023-03-19T15:11:33.828Z,17.88008724941401
2023-03-19T15:14:39.596Z,17.873021609989518
2023-03-19T15:17:22.766Z,17.860817325006884
2023-03-19T15:21:19.291Z,17.81585418397308
2023-03-19T15:24:17.225Z,17.770248735115455
2023-03-19T15:27:19.256Z,17.72978194757752
2023-03-19T15:31:31.771Z,17.720147000824
2023-03-19T15:34:21.037Z,17.671329952997986
2023-03-19T15:37:18.311Z,17.631505538699276
2023-03-19T15:41:17.808Z,17.616731970098137
2023-03-19T15:44:21.808Z,17.57947689474249
2023-03-19T15:47:21.154Z,17.565987991920338
2023-03-19T15:51:16.877Z,17.581403881023654
2023-03-19T15:54:17.915Z,17.556353062560902
2023-03-19T15:57:18.118Z,17.554426076811797
2023-03-19T16:01:18.389Z,17.55892237695671
2023-03-19T16:04:23.632Z,17.531302251014857
2023-03-19T16:07:31.879Z,17.51331705724733
2023-03-19T16:11:28.022Z,17.480558320617366
2023-03-19T16:14:25.178Z,17.48376996094048
2023-03-19T16:17:17.671Z,17.46771176046177
2023-03-19T16:21:19.597Z,17.451011234978886
2023-03-19T16:24:23.904Z,17.386136145922137
2023-03-19T16:27:21.486Z,17.33410764267328
2023-03-19T16:31:21.820Z,17.30391827792373
2023-03-19T16:34:34.811Z,17.235831662385316
2023-03-19T16:37:31.143Z,17.199219069494667
2023-03-19T16:41:23.203Z,17.154898582079113
2023-03-19T16:44:19.104Z,17.06561534708171
2023-03-19T16:47:17.197Z,17.067542322448936
2023-03-19T16:51:20.861Z,17.00009820894784
2023-03-19T16:54:18.335Z,16.90567653427461
2023-03-19T16:57:18.752Z,16.82088980810113
2023-03-19T17:01:19.565Z,16.80033546217346
2023-03-19T17:04:17.898Z,16.75408820086195
2023-03-19T17:07:16.328Z,16.680221096274998
2023-03-19T17:11:22.957Z,16.62305442183315
2023-03-19T17:14:20.301Z,16.576807250889033
2023-03-19T17:17:19.036Z,16.537625638397095
2023-03-19T17:21:22.126Z,16.546618138128633
2023-03-19T17:24:22.972Z,16.42393482580228
2023-03-19T17:27:16.948Z,16.40145360854449
2023-03-19T17:31:22.874Z,16.418153940832507
2023-03-19T17:34:19.385Z,16.377687756357773
2023-03-19T17:37:16.291Z,16.330156070660813
2023-03-19T17:41:18.399Z,16.298682400592316
2023-03-19T17:44:16.653Z,16.2415159665572
2023-03-19T17:47:17.648Z,16.190772757534525
2023-03-19T17:51:17.831Z,16.1580144984302
2023-03-19T17:54:17.437Z,16.105344381138273
2023-03-19T17:57:17.782Z,16.077724697706525
2023-03-19T18:01:19.955Z,16.028908533600134
2023-03-19T18:04:19.136Z,16.012208272962106
2023-03-19T18:07:17.075Z,16.01285059062211
2023-03-19T18:11:16.593Z,15.936414821009475
2023-03-19T18:14:16.931Z,15.917787626408971
2023-03-19T18:17:17.895Z,15.879890931958016
2023-03-19T18:21:17.193Z,15.872183131634028
2023-03-19T18:24:17.199Z,15.813732333822191
2023-03-19T18:27:17.320Z,15.794462848291733
2023-03-19T18:31:18.373Z,15.803455274363296
2023-03-19T18:34:17.570Z,15.795105164410142
2023-03-19T18:37:17.748Z,15.730873575079112
2023-03-19T18:41:18.620Z,15.671780553057852
2023-03-19T18:44:18.994Z,15.698757797466623
2023-03-19T18:47:18.086Z,15.690407697149567
2023-03-19T18:51:17.272Z,15.624249237188724
2023-03-19T18:54:18.417Z,15.617826088305538
2023-03-19T18:57:53.710Z,15.581856462963424
2023-03-19T19:01:17.761Z,15.590206553289681
2023-03-19T19:04:17.367Z,15.547813794971443
2023-03-19T19:07:17.588Z,15.511201883274135
2023-03-19T19:11:20.908Z,15.498997915991641
2023-03-19T19:14:21.722Z,15.44375892671851
2023-03-19T19:17:18.882Z,15.376958333456788
2023-03-19T19:21:16.888Z,15.370535202081374
2023-03-19T19:24:18.351Z,15.350623497707511
2023-03-19T19:27:20.891Z,15.33071179770377
2023-03-19T19:31:23.373Z,15.293457661046705
2023-03-19T19:34:17.338Z,15.238861109100345
2023-03-19T19:37:17.962Z,15.209314753513263
2023-03-19T19:41:19.077Z,15.22729949055074
2023-03-19T19:44:19.114Z,15.189403084523292
2023-03-19T19:47:17.158Z,15.146368201958193
2023-03-19T19:51:19.190Z,15.111041074810782
2023-03-19T19:54:16.997Z,15.089844805125267
2023-03-19T19:57:25.146Z,15.077640894522483
2023-03-19T20:01:19.618Z,15.11296800866412
2023-03-19T20:04:16.873Z,15.085990938441773
2023-03-19T20:07:16.815Z,15.039102240238572
2023-03-19T20:11:21.614Z,15.06672160747994
2023-03-19T20:14:17.065Z,15.064152363660924
2023-03-19T20:17:18.714Z,15.024971404436291
2023-03-19T20:21:16.688Z,14.983221220605719
2023-03-19T20:24:17.138Z,14.987075082923639
2023-03-19T20:27:20.534Z,14.945324916532627
2023-03-19T20:31:24.213Z,14.931194095336831
2023-03-19T20:34:32.460Z,14.913209416998143
2023-03-19T20:37:20.166Z,14.881736238484246
2023-03-19T20:41:22.377Z,14.924128685564302
2023-03-19T20:44:24.844Z,14.868247736749254
2023-03-19T20:47:19.804Z,14.84448228619085
2023-03-19T20:51:20.411Z,14.829066862130366
2023-03-19T20:54:17.627Z,14.791812931464756
2023-03-19T20:57:21.738Z,14.7802513698859
2023-03-19T21:01:22.233Z,14.74107053327025
2023-03-19T21:04:20.431Z,14.737216681402424
2023-03-19T21:07:29.512Z,14.727582052449089
2023-03-19T21:11:21.650Z,14.68968585515977
2023-03-19T21:14:18.191Z,14.663351218908156
2023-03-19T21:17:18.523Z,14.65243198172866
2023-03-19T21:21:20.235Z,14.608112738433647
2023-03-19T21:24:20.811Z,14.586274278685687
2023-03-19T21:27:21.954Z,14.553516598920396
2023-03-19T21:31:19.545Z,14.532320459492713
2023-03-19T21:34:16.673Z,14.549662755019744
2023-03-19T21:37:18.121Z,14.451389790866324
2023-03-19T21:41:21.272Z,14.461024390488456
2023-03-19T21:44:21.246Z,14.372386112559251
2023-03-19T21:47:19.736Z,14.333205452089988
2023-03-19T21:51:16.715Z,14.322928560341916
2023-03-19T21:54:16.894Z,14.316505503590543
2023-03-19T21:57:16.496Z,14.253559571492314
2023-03-19T22:01:18.910Z,14.2330058072047
2023-03-19T22:04:16.799Z,14.202817474349649
2023-03-19T22:07:17.654Z,14.16235227798179
2023-03-19T22:11:19.257Z,14.09876414872706
2023-03-19T22:14:23.090Z,14.058941302597304
2023-03-19T22:17:17.085Z,14.046095226929538
2023-03-19T22:21:18.896Z,14.022329991739479
2023-03-19T22:24:16.723Z,14.007557010840173
2023-03-19T22:27:16.962Z,14.04737983441446
2023-03-19T22:31:16.112Z,13.978653359516557
2023-03-19T22:34:19.081Z,13.990857122285524
2023-03-19T22:37:24.840Z,13.956815051290414
2023-03-19T22:41:20.267Z,13.896438579434562
2023-03-19T22:44:23.087Z,13.91121154223947
2023-03-19T22:47:20.384Z,13.838631356800125
2023-03-19T22:51:17.944Z,13.830923729898586
2023-03-19T22:54:16.470Z,13.83541984551157
2023-03-19T22:57:16.925Z,13.808443155176064
2023-03-19T23:01:33.000Z,13.78018186914269
2023-03-19T23:04:19.609Z,13.744212972378591
2023-03-19T23:07:16.534Z,13.694755762613294
2023-03-19T23:11:17.985Z,13.700536474051479
2023-03-19T23:14:28.595Z,13.651079288096753
2023-03-19T23:17:17.565Z,13.6382332701819
2023-03-19T23:21:17.752Z,13.557303399145985
2023-03-19T23:24:17.595Z,13.550880396600496
2023-03-19T23:27:23.024Z,13.532253691790174
2023-03-19T23:31:16.789Z,13.515553890728915
2023-03-19T23:34:17.491Z,13.468023704534062
2023-03-19T23:37:16.952Z,13.449397016735839
2023-03-19T23:41:21.461Z,13.453893113440426
2023-03-19T23:44:17.922Z,13.424989638513306
2023-03-19T23:47:17.155Z,13.424989638513306
2023-03-19T23:51:16.974Z,13.421135842552122
2023-03-19T23:54:27.647Z,13.387093985338288
2023-03-19T23:57:17.035Z,13.421778141867616
